Yatesville, PA

5:45 PM EDT on June 02, 2015 (GMT -0400)
Shenandoah Heights | | Change Station
CLOSE
Current Station
Personal Weather Station
Location: Shenandoah, PA
Elevation: 1634 ft
Nearby Weather Stations

Elev 1634 ft 40.83 °N, 76.20 °W | Updated 9 minutes ago

Rain
Rain
54.3 °F
Feels Like 54.3 °F
N
2.2
Wind Variable Wind from South

Today
High -- | Low -- °F
--% Chance of Precip.
Yesterday
High -- | Low -- °F
Precip. -- in
5:35 AM 8:30 PM
Full, 100% visible
Pressure 30.11 in
Visibility 10.0 miles
Clouds Mostly Cloudy 1000 ft
Overcast 8500 ft
Dew Point 53 °F
Humidity 95%
Rainfall 1.37 in
Snow Depth Not available.
UV 1 out of 12
Pollen .90 out of 12
Air Quality Not available.
Flu Activity Sporadic
SPECI KRDG 022104Z AUTO 04003KT 10SM -RA BR BKN010 OVC085 13/12 A3011 RMK AO2 P0000 T01330122

More Conditions Fewer Conditions

Pressure 30.11 in
Visibility 10.0 miles
Clouds Mostly Cloudy 1000 ft
Overcast 8500 ft
Dew Point 53 °F
Humidity 95%
Rainfall 1.37 in
Snow Depth Not available.
UV 1 out of 12
Pollen .90 out of 12
Air Quality Not available.
Flu Activity Sporadic
SPECI KRDG 022104Z AUTO 04003KT 10SM -RA BR BKN010 OVC085 13/12 A3011 RMK AO2 P0000 T01330122

More Conditions Fewer Conditions

10-Day Weather Forecast

×

Almanac

Astronomy

Jun. 02, 2015 Rise Set
Actual Time
Civil Twilight
Nautical Twilight
Astronomical Twilight
Moon
Length of Visible Light
Length of Day
Tomorrow will be .
, % of the Moon is Illuminated

Today's Extremes

State Highs State Lows

Community

WunderPhotos

Upload Photos

1,826,032 photos uploaded!

WunderBlogs® & News

Nearby

Air Quality

  Air Quality AQ Index Pollutant
Not available.

Snow Depth

Station Depth Elevation

Earthquake Activity

City Distance Mag. Time & Date
Minimum magnitude displayed is 2.5.

Coastal Water Temperatures

Place Temperature

Stations

Nearby Weather Stations

Station Location Temp. Windchill Dew Point Humidity Wind Precip. Elev Updated Type